Bennettsville, SC (29512)

2:34 AM EDT on July 24, 2014 (GMT -0400)
Cottingham Creek (KSCBENNE4) Elev 143 ft | 34.60 °N, 79.63 °W | Change Station

Current weather conditions updated 1 minute ago

Clear
Clear
76.9 °F
Feels Like 78 °F
N
0.0
Wind Variable Wind from SSW
Gusts 2.0 mph

Today is forecast to be nearly the same temperature as yesterday. Afternoon thunderstorms.

Today
High -- | Low -- °F
--% Chance of Precip.
Yesterday
High -- | Low -- °F
Precip. -- in
6:23 AM 8:26 PM
Waning Crescent, 6% visible
Pressure 29.95 in
Visibility 7.0 miles
Clouds Clear
Heat Index 78 °F
Dew Point 74 °F
Humidity 91%
Rainfall 0.00 in
Snow Depth Not available.
UV 0 out of 12
Pollen 2.80 out of 12
PM2.5 Good
Flu Activity Not available.
METAR KBBP 240615Z AUTO 21004KT 7SM CLR 26/22 A2995 RMK AO2

More Conditions Fewer Conditions

Pressure 29.95 in
Visibility 7.0 miles
Clouds Clear
Heat Index 78 °F
Dew Point 74 °F
Humidity 91%
Rainfall 0.00 in
Snow Depth Not available.
UV 0 out of 12
Pollen 2.80 out of 12
PM2.5 Good
Flu Activity Not available.
METAR KBBP 240615Z AUTO 21004KT 7SM CLR 26/22 A2995 RMK AO2

More Conditions Fewer Conditions

10-Day Weather Forecast

Almanac

Astronomy

Jul. 24, 2014 Rise Set
Actual Time 6:23 AM EDT 8:26 PM EDT
Civil Twilight 5:54 AM EDT 8:55 PM EDT
Nautical Twilight 5:20 AM EDT 9:29 PM EDT
Astronomical Twilight 4:43 AM EDT 10:06 PM EDT
Moon 4:28 AM EDT 6:42 PM EDT
Length of Visible Light 15h 00m
Length of Day
14h 03m
Tomorrow will be 1m 25s shorter.
Waning Crescent, 6% of the Moon is Illuminated
Today
Waning Crescent
Jul 26
New
Aug 3
First Quarter
Aug 10
Full
Aug 17
Last Quarter

Today's Extremes

State Highs State Lows

Community

WunderPhotos

Upload Photos

1,736,950 photos uploaded!

Nearby

Air Quality

  Air Quality AQ Index Pollutant
Yesterday Good
PM2.5
Yesterday Good
OZONE
Current Good
PM2.5
Thursday Good
OZONE

Snow Depth

Station Depth Elevation
No new snow has been reported.

Earthquake Activity

City Distance Mag. Time & Date
No recent earthquake activity has been reported nearby.
Minimum magnitude displayed is 2.5.

Coastal Water Temperatures

Place Temperature
No Stations Reporting

Nearby Weather Stations

Station Location Temp. Heat Index Dew Point Humidity Wind Precip. Elev Updated Type
Cottingham Creek, Bennettsville, SC 76.9 °F 78 °F 74 °F 91% SSW  at  0.0 mph 0.00 in / hr 143 ft 2:33 AM EDT Rapid Fire
Cheraw, SC 74.2 °F 71 °F 74 °F 98% WNW  at  0.0 mph 0.00 in / hr 110 ft 2:30 AM EDT Normal
Hunts Mill, Chesterfield, SC 76.1 °F 76 °F 74 °F 94% SSW  at  0.0 mph - / hr 164 ft 2:27 AM EDT Normal
Mechanicsville, Darlington, SC 77.1 °F 78 °F 75 °F 93% SSW  at  4.0 mph 0.00 in / hr 144 ft 2:34 AM EDT Rapid Fire
Deer Run, Hamlet, NC 76.2 °F 76 °F 74 °F 94% WSW  at  0.0 mph 0.00 in / hr 400 ft 2:30 AM EDT Normal
RAWS ROCKINGHAM NC, Rockingham, NC 77 °F 78 °F 75 °F 94% SSW  at  4 mph 0.00 in / hr 399 ft 1:45 AM EDT MADIS

Show More Stations Show Fewer Stations